createdAt,value
2019-04-29T00:00:56.674Z,23.30
2019-04-29T00:03:27.322Z,23.30
2019-04-29T00:05:58.439Z,23.30
2019-04-29T00:08:29.299Z,23.30
2019-04-29T00:10:59.910Z,23.30
2019-04-29T00:13:30.755Z,23.30
2019-04-29T00:16:32.701Z,23.30
2019-04-29T00:19:18.025Z,23.30
2019-04-29T00:21:49.215Z,23.30
2019-04-29T00:24:19.676Z,23.30
2019-04-29T00:26:50.234Z,23.30
2019-04-29T00:29:20.743Z,23.30
2019-04-29T00:31:51.385Z,23.30
2019-04-29T00:34:21.815Z,23.30
2019-04-29T00:37:09.959Z,23.30
2019-04-29T00:40:14.918Z,23.30
2019-04-29T00:43:19.789Z,23.30
2019-04-29T00:45:50.834Z,23.30
2019-04-29T00:48:21.603Z,23.30
2019-04-29T00:50:52.414Z,23.30
2019-04-29T00:53:23.543Z,23.30
2019-04-29T00:55:54.720Z,23.30
2019-04-29T00:58:25.463Z,23.20
2019-04-29T01:00:56.475Z,23.20
2019-04-29T01:03:27.468Z,23.20
2019-04-29T01:05:58.019Z,23.20
2019-04-29T01:08:28.493Z,23.20
2019-04-29T01:10:58.970Z,23.20
2019-04-29T01:13:29.776Z,23.20
2019-04-29T01:16:00.384Z,23.20
2019-04-29T01:18:31.318Z,23.20
2019-04-29T01:21:02.076Z,23.20
2019-04-29T01:23:32.883Z,23.20
2019-04-29T01:26:12.947Z,23.20
2019-04-29T01:28:49.516Z,23.20
2019-04-29T01:31:28.373Z,23.20
2019-04-29T01:34:09.856Z,23.30
2019-04-29T01:36:44.036Z,23.30
2019-04-29T01:39:15.333Z,23.30
2019-04-29T01:42:05.159Z,23.30
2019-04-29T01:44:37.406Z,23.30
2019-04-29T01:47:08.285Z,23.20
2019-04-29T01:49:39.229Z,23.20
2019-04-29T01:52:09.855Z,23.20
2019-04-29T01:54:40.721Z,23.20
2019-04-29T01:57:11.422Z,23.20
2019-04-29T01:59:42.282Z,23.20
2019-04-29T02:02:13.087Z,23.20
2019-04-29T02:04:44.007Z,23.20
2019-04-29T02:07:14.886Z,23.20
2019-04-29T02:10:07.202Z,23.20
2019-04-29T02:12:38.125Z,23.20
2019-04-29T02:15:09.210Z,23.20
2019-04-29T02:17:39.963Z,23.20
2019-04-29T02:20:10.759Z,23.20
2019-04-29T02:23:03.714Z,23.10
2019-04-29T02:25:38.359Z,23.20
2019-04-29T02:28:09.216Z,23.20
2019-04-29T02:30:44.496Z,23.20
2019-04-29T02:33:15.179Z,23.20
2019-04-29T02:35:46.694Z,23.20
2019-04-29T02:38:51.538Z,23.20
2019-04-29T02:41:40.049Z,23.20
2019-04-29T02:44:12.254Z,23.20
2019-04-29T02:46:43.137Z,23.20
2019-04-29T02:49:13.859Z,23.20
2019-04-29T02:51:53.452Z,23.20
2019-04-29T02:54:25.292Z,23.20
2019-04-29T02:57:15.152Z,23.20
2019-04-29T02:59:49.149Z,23.20
2019-04-29T03:02:38.706Z,23.20
2019-04-29T03:05:28.394Z,23.20
2019-04-29T03:07:59.353Z,23.20
2019-04-29T03:10:30.280Z,23.20
2019-04-29T03:13:01.165Z,23.20
2019-04-29T03:15:33.697Z,23.20
2019-04-29T03:18:04.650Z,23.20
2019-04-29T03:20:48.087Z,23.20
2019-04-29T03:23:20.648Z,23.20
2019-04-29T03:25:51.520Z,23.20
2019-04-29T03:28:22.425Z,23.20
2019-04-29T03:30:53.162Z,23.20
2019-04-29T03:33:24.276Z,23.20
2019-04-29T03:35:55.137Z,23.20
2019-04-29T03:38:25.911Z,23.20
2019-04-29T03:40:56.773Z,23.10
2019-04-29T03:43:27.590Z,23.10
2019-04-29T03:45:59.694Z,23.20
2019-04-29T03:48:35.223Z,23.10
2019-04-29T03:51:06.065Z,23.10
2019-04-29T03:53:36.839Z,23.10
2019-04-29T03:56:07.673Z,23.10
2019-04-29T03:58:38.435Z,23.10
2019-04-29T04:01:17.802Z,23.10
2019-04-29T04:03:53.481Z,23.10
2019-04-29T04:06:48.069Z,23.10
2019-04-29T04:09:24.171Z,23.10
2019-04-29T04:11:54.992Z,23.10
2019-04-29T04:14:25.969Z,23.10
2019-04-29T04:17:20.247Z,23.10
2019-04-29T04:19:48.909Z,23.20
2019-04-29T04:22:19.527Z,23.20
2019-04-29T04:24:52.255Z,23.20
2019-04-29T04:27:23.104Z,23.20
2019-04-29T04:29:53.808Z,23.20
2019-04-29T04:32:24.812Z,23.20
2019-04-29T04:34:55.490Z,23.20
2019-04-29T04:37:26.469Z,23.10
2019-04-29T04:39:57.556Z,23.20
2019-04-29T04:42:30.080Z,23.10
2019-04-29T04:45:00.919Z,23.20
2019-04-29T04:47:31.893Z,23.20
2019-04-29T04:50:02.594Z,23.20
2019-04-29T04:52:33.458Z,23.30
2019-04-29T04:55:04.190Z,23.30
2019-04-29T04:57:35.124Z,23.40
2019-04-29T05:00:07.779Z,23.40
2019-04-29T05:02:38.689Z,23.40
2019-04-29T05:05:09.406Z,23.40
2019-04-29T05:07:40.239Z,23.40
2019-04-29T05:10:11.108Z,23.30
2019-04-29T05:12:41.905Z,23.30
2019-04-29T05:15:12.852Z,23.30
2019-04-29T05:17:43.767Z,23.20
2019-04-29T05:20:14.865Z,23.30
2019-04-29T05:23:00.852Z,23.40
2019-04-29T05:25:32.745Z,23.40
2019-04-29T05:28:03.631Z,23.30
2019-04-29T05:30:34.485Z,23.30
2019-04-29T05:33:05.182Z,23.40
2019-04-29T05:36:07.531Z,23.50
2019-04-29T05:38:56.622Z,23.50
2019-04-29T05:41:30.225Z,23.50
2019-04-29T05:44:21.945Z,23.50
2019-04-29T05:46:58.518Z,23.40
2019-04-29T05:49:44.175Z,23.40
2019-04-29T05:52:43.291Z,23.40
2019-04-29T05:55:15.438Z,23.40
2019-04-29T05:57:46.436Z,23.30
2019-04-29T06:00:22.924Z,23.30
2019-04-29T06:02:51.323Z,23.30
2019-04-29T06:05:22.243Z,23.30
2019-04-29T06:07:56.112Z,23.30
2019-04-29T06:10:25.657Z,23.30
2019-04-29T06:12:56.447Z,23.30
2019-04-29T06:15:27.221Z,23.30
2019-04-29T06:17:58.066Z,23.30
2019-04-29T06:20:28.928Z,23.30
2019-04-29T06:23:00.004Z,23.30
2019-04-29T06:25:30.983Z,23.30
2019-04-29T06:28:01.752Z,23.30
2019-04-29T06:30:32.449Z,23.20
2019-04-29T06:33:03.411Z,23.20
2019-04-29T06:35:34.217Z,23.20
2019-04-29T06:38:04.977Z,23.20
2019-04-29T06:40:36.962Z,23.20
2019-04-29T06:43:07.662Z,23.20
2019-04-29T06:45:38.575Z,23.20
2019-04-29T06:48:09.430Z,23.20
2019-04-29T06:50:40.190Z,23.20
2019-04-29T06:53:10.758Z,23.20
2019-04-29T06:55:41.331Z,23.20
2019-04-29T06:58:11.745Z,23.20
2019-04-29T07:00:42.212Z,23.20
2019-04-29T07:03:12.776Z,23.20
2019-04-29T07:05:43.511Z,23.30
2019-04-29T07:08:14.475Z,23.30
2019-04-29T07:10:45.308Z,23.20
2019-04-29T07:13:18.085Z,23.30
2019-04-29T07:15:49.073Z,23.20
2019-04-29T07:18:19.997Z,23.20
2019-04-29T07:20:50.927Z,23.20
2019-04-29T07:23:21.866Z,23.20
2019-04-29T07:25:53.022Z,23.20
2019-04-29T07:28:23.567Z,23.20
2019-04-29T07:31:03.052Z,23.20
2019-04-29T07:33:27.010Z,23.20
2019-04-29T07:36:10.352Z,23.20
2019-04-29T07:38:41.149Z,23.20
2019-04-29T07:41:03.250Z,23.20
2019-04-29T07:43:34.099Z,23.10
2019-04-29T07:46:19.206Z,23.10
2019-04-29T07:49:00.713Z,23.10
2019-04-29T07:51:22.586Z,23.10
2019-04-29T07:53:53.281Z,23.10
2019-04-29T07:56:24.335Z,23.10
2019-04-29T07:58:58.953Z,23.10
2019-04-29T08:01:27.755Z,23.20
2019-04-29T08:03:58.539Z,23.20
2019-04-29T08:06:29.329Z,23.20
2019-04-29T08:09:07.414Z,23.20
2019-04-29T08:11:33.142Z,23.20
2019-04-29T08:14:04.179Z,23.20
2019-04-29T08:16:35.068Z,23.20
2019-04-29T08:19:05.942Z,23.10
2019-04-29T08:21:36.934Z,23.20
2019-04-29T08:24:07.742Z,23.20
2019-04-29T08:26:47.096Z,23.10
2019-04-29T08:29:13.559Z,23.10
2019-04-29T08:31:44.261Z,23.10
2019-04-29T08:34:18.738Z,23.10
2019-04-29T08:36:47.668Z,23.10
2019-04-29T08:39:18.660Z,23.10
2019-04-29T08:41:50.139Z,23.10
2019-04-29T08:44:31.252Z,23.10
2019-04-29T08:47:23.566Z,23.10
2019-04-29T08:49:52.634Z,23.10
2019-04-29T08:52:23.542Z,23.10
2019-04-29T08:54:55.505Z,23.10
2019-04-29T08:57:27.030Z,23.10
2019-04-29T08:59:57.868Z,23.10
2019-04-29T09:02:35.156Z,23.10
2019-04-29T09:05:01.692Z,23.10
2019-04-29T09:07:32.533Z,23.10
2019-04-29T09:10:03.729Z,23.10
2019-04-29T09:12:34.817Z,23.10
2019-04-29T09:15:05.896Z,23.10
2019-04-29T09:17:36.803Z,23.10
2019-04-29T09:20:08.268Z,23.10
2019-04-29T09:22:42.352Z,23.10
2019-04-29T09:25:31.211Z,23.10
2019-04-29T09:28:06.118Z,23.10
2019-04-29T09:30:38.646Z,23.10
2019-04-29T09:33:13.158Z,23.10
2019-04-29T09:35:42.027Z,23.10
2019-04-29T09:38:13.222Z,23.10
2019-04-29T09:40:54.636Z,23.10
2019-04-29T09:43:35.773Z,23.10
2019-04-29T09:46:13.926Z,23.10
2019-04-29T09:48:45.070Z,23.10
2019-04-29T09:51:17.890Z,23.20
2019-04-29T09:53:48.454Z,23.10
2019-04-29T09:56:19.486Z,23.20
2019-04-29T09:58:52.143Z,23.10
2019-04-29T10:01:54.580Z,23.10
2019-04-29T10:04:32.751Z,23.10
2019-04-29T10:07:03.460Z,23.10
2019-04-29T10:09:33.993Z,23.10
2019-04-29T10:12:04.863Z,23.10
2019-04-29T10:14:36.643Z,23.10
2019-04-29T10:17:45.939Z,23.10
2019-04-29T10:20:45.340Z,23.00
2019-04-29T10:23:16.391Z,23.10
2019-04-29T10:25:47.316Z,23.00
2019-04-29T10:28:18.304Z,23.10
2019-04-29T10:30:49.060Z,23.10
2019-04-29T10:33:22.953Z,23.00
2019-04-29T10:35:52.455Z,23.00
2019-04-29T10:38:23.362Z,23.00
2019-04-29T10:41:02.340Z,23.00
2019-04-29T10:43:55.618Z,23.10
2019-04-29T10:46:44.162Z,23.10
2019-04-29T10:49:22.805Z,23.10
2019-04-29T10:51:58.134Z,23.10
2019-04-29T10:54:28.090Z,23.10
2019-04-29T10:56:59.131Z,23.10
2019-04-29T10:59:35.909Z,23.10
2019-04-29T11:02:31.901Z,23.10
2019-04-29T11:05:20.873Z,23.10
2019-04-29T11:07:58.119Z,23.10
2019-04-29T11:10:29.208Z,23.10
2019-04-29T11:13:00.650Z,23.10
2019-04-29T11:15:37.762Z,23.10
2019-04-29T11:18:09.212Z,23.10
2019-04-29T11:20:40.035Z,23.10
2019-04-29T11:23:18.296Z,23.10
2019-04-29T11:26:14.256Z,23.10
2019-04-29T11:28:46.865Z,23.10
2019-04-29T11:31:19.277Z,23.10
2019-04-29T11:33:57.990Z,23.00
2019-04-29T11:36:28.904Z,23.00
2019-04-29T11:38:59.630Z,23.00
2019-04-29T11:41:30.735Z,23.10
2019-04-29T11:44:01.922Z,23.10
2019-04-29T11:46:32.918Z,23.10
2019-04-29T11:49:05.384Z,23.00
2019-04-29T11:52:07.761Z,23.00
2019-04-29T11:54:18.173Z,23.10
2019-04-29T11:56:49.187Z,23.00
2019-04-29T11:59:39.068Z,23.10
2019-04-29T12:02:23.445Z,23.00
2019-04-29T12:05:04.151Z,23.00
2019-04-29T12:07:35.176Z,23.00
2019-04-29T12:10:06.787Z,23.10
2019-04-29T12:12:38.710Z,23.10
2019-04-29T12:15:22.439Z,23.10
2019-04-29T12:18:08.488Z,23.10
2019-04-29T12:20:58.508Z,23.00
2019-04-29T12:23:29.609Z,23.00
2019-04-29T12:26:02.997Z,23.00
2019-04-29T12:28:32.951Z,23.00
2019-04-29T12:31:10.281Z,23.10
2019-04-29T12:33:48.444Z,23.10
2019-04-29T12:36:19.274Z,23.10
2019-04-29T12:39:15.396Z,23.10
2019-04-29T12:42:13.972Z,23.10
2019-04-29T12:44:54.444Z,23.10
2019-04-29T12:47:33.294Z,23.10
2019-04-29T12:50:04.329Z,23.10
2019-04-29T12:52:35.161Z,23.10
2019-04-29T12:55:19.619Z,23.10
2019-04-29T12:57:39.752Z,23.10
2019-04-29T13:00:12.707Z,23.10
2019-04-29T13:02:59.897Z,23.10
2019-04-29T13:06:02.709Z,23.10
2019-04-29T13:08:54.263Z,23.00
2019-04-29T13:11:36.148Z,23.10
2019-04-29T13:14:01.810Z,23.00
2019-04-29T13:16:43.413Z,23.00
2019-04-29T13:19:25.138Z,23.10
2019-04-29T13:21:54.102Z,23.00
2019-04-29T13:24:25.373Z,23.00
2019-04-29T13:26:56.320Z,23.00
2019-04-29T13:29:27.897Z,23.00
2019-04-29T13:32:01.617Z,23.00
2019-04-29T13:34:36.393Z,23.00
2019-04-29T13:37:12.304Z,23.10
2019-04-29T13:39:41.219Z,23.10
2019-04-29T13:42:15.547Z,23.20
2019-04-29T13:45:04.690Z,23.20
2019-04-29T13:47:30.860Z,23.10
2019-04-29T13:50:17.887Z,23.20
2019-04-29T13:52:39.365Z,23.10
2019-04-29T13:55:17.695Z,23.10
2019-04-29T13:57:44.998Z,23.10
2019-04-29T14:00:36.288Z,23.10
2019-04-29T14:03:12.951Z,23.10
2019-04-29T14:05:43.988Z,23.10
2019-04-29T14:08:17.144Z,23.10
2019-04-29T14:10:51.111Z,23.10
2019-04-29T14:13:21.079Z,23.00
2019-04-29T14:15:52.933Z,23.10
2019-04-29T14:18:23.836Z,23.10
2019-04-29T14:20:55.426Z,23.00
2019-04-29T14:23:31.947Z,23.10
2019-04-29T14:26:05.532Z,23.10
2019-04-29T14:28:36.495Z,23.20
2019-04-29T14:31:07.949Z,23.20
2019-04-29T14:33:46.954Z,23.20
2019-04-29T14:36:19.987Z,23.20
2019-04-29T14:38:50.650Z,23.20
2019-04-29T14:41:21.907Z,23.20
2019-04-29T14:44:30.317Z,23.10
2019-04-29T14:47:09.152Z,23.20
2019-04-29T14:49:45.390Z,23.10
2019-04-29T14:52:16.411Z,23.10
2019-04-29T14:54:46.950Z,23.10
2019-04-29T14:57:17.800Z,23.10
2019-04-29T14:59:51.576Z,23.10
2019-04-29T15:02:25.166Z,23.10
2019-04-29T15:04:56.279Z,23.10
2019-04-29T15:07:29.427Z,23.10
2019-04-29T15:10:01.528Z,23.00
2019-04-29T15:12:52.422Z,23.10
2019-04-29T15:15:39.300Z,23.10
2019-04-29T15:18:45.404Z,23.00
2019-04-29T15:21:06.187Z,23.10
2019-04-29T15:23:37.700Z,23.10
2019-04-29T15:26:08.518Z,23.10
2019-04-29T15:28:58.592Z,23.10
2019-04-29T15:31:29.854Z,23.10
2019-04-29T15:34:00.698Z,23.10
2019-04-29T15:36:34.826Z,23.10
2019-04-29T15:39:09.365Z,23.10
2019-04-29T15:41:36.920Z,23.10
2019-04-29T15:44:18.507Z,23.10
2019-04-29T15:46:48.474Z,23.10
2019-04-29T15:49:19.956Z,23.00
2019-04-29T15:52:02.894Z,23.10
2019-04-29T15:54:36.425Z,23.00
2019-04-29T15:57:10.748Z,23.00
2019-04-29T15:59:48.894Z,23.10
2019-04-29T16:02:18.385Z,23.20
2019-04-29T16:04:57.233Z,23.10
2019-04-29T16:08:00.409Z,23.20
2019-04-29T16:10:57.979Z,23.20
2019-04-29T16:13:27.738Z,23.20
2019-04-29T16:16:00.671Z,23.20
2019-04-29T16:18:31.430Z,23.20
2019-04-29T16:21:05.818Z,23.20
2019-04-29T16:23:40.360Z,23.30
2019-04-29T16:26:11.557Z,23.30
2019-04-29T16:28:42.276Z,23.30
2019-04-29T16:31:14.486Z,23.30
2019-04-29T16:33:54.608Z,23.30
2019-04-29T16:36:20.281Z,23.40
2019-04-29T16:38:53.965Z,23.30
2019-04-29T16:41:40.474Z,23.30
2019-04-29T16:44:34.889Z,23.30
2019-04-29T16:46:55.152Z,23.30
2019-04-29T16:49:26.450Z,23.30
2019-04-29T16:51:58.470Z,23.30
2019-04-29T16:54:29.508Z,23.40
2019-04-29T16:57:02.067Z,23.70
2019-04-29T16:59:33.419Z,23.80
2019-04-29T17:02:04.683Z,23.90
2019-04-29T17:04:42.199Z,24.10
2019-04-29T17:07:15.195Z,24.10
2019-04-29T17:10:04.727Z,24.10
2019-04-29T17:12:42.678Z,24.20
2019-04-29T17:15:24.063Z,24.20
2019-04-29T17:17:46.440Z,24.20
2019-04-29T17:20:17.330Z,24.40
2019-04-29T17:22:48.401Z,24.40
2019-04-29T17:25:19.490Z,24.40
2019-04-29T17:28:24.105Z,24.40
2019-04-29T17:31:12.144Z,24.30
2019-04-29T17:34:01.069Z,24.30
2019-04-29T17:36:32.434Z,24.40
2019-04-29T17:39:03.572Z,24.40
2019-04-29T17:41:34.757Z,24.40
2019-04-29T17:44:27.375Z,24.50
2019-04-29T17:47:29.581Z,24.60
2019-04-29T17:50:31.918Z,24.50
2019-04-29T17:53:04.633Z,24.50
2019-04-29T17:55:41.598Z,24.50
2019-04-29T17:58:19.368Z,24.40
2019-04-29T18:01:26.327Z,24.50
2019-04-29T18:04:22.360Z,24.50
2019-04-29T18:07:12.588Z,24.40
2019-04-29T18:09:58.823Z,24.40
2019-04-29T18:12:39.797Z,24.30
2019-04-29T18:15:02.737Z,24.20
2019-04-29T18:17:36.262Z,24.10
2019-04-29T18:20:32.857Z,24.10
2019-04-29T18:23:24.139Z,24.00
2019-04-29T18:26:02.423Z,24.00
2019-04-29T18:28:33.369Z,23.90
2019-04-29T18:31:09.017Z,23.90
2019-04-29T18:33:42.596Z,23.90
2019-04-29T18:36:23.595Z,23.80
2019-04-29T18:38:50.936Z,23.80
2019-04-29T18:41:26.753Z,23.80
2019-04-29T18:44:03.071Z,23.80
2019-04-29T18:46:35.196Z,23.70
2019-04-29T18:49:08.892Z,23.70
2019-04-29T18:51:42.674Z,23.70
2019-04-29T18:54:13.479Z,23.70
2019-04-29T18:56:45.619Z,23.70
2019-04-29T18:59:19.831Z,23.70
2019-04-29T19:01:51.775Z,23.70
2019-04-29T19:04:28.943Z,23.70
2019-04-29T19:07:02.471Z,23.70
2019-04-29T19:09:35.856Z,23.60
2019-04-29T19:12:06.880Z,23.60
2019-04-29T19:14:37.578Z,23.70
2019-04-29T19:17:08.454Z,23.70
2019-04-29T19:19:39.564Z,23.80
2019-04-29T19:22:10.523Z,23.70
2019-04-29T19:24:44.055Z,23.70
2019-04-29T19:27:15.028Z,23.70
2019-04-29T19:29:46.168Z,23.70
2019-04-29T19:32:18.805Z,23.60
2019-04-29T19:34:53.968Z,23.60
2019-04-29T19:37:22.725Z,23.60
2019-04-29T19:39:57.080Z,23.50
2019-04-29T19:42:29.675Z,23.50
2019-04-29T19:44:59.330Z,23.50
2019-04-29T19:47:30.188Z,23.50
2019-04-29T19:50:01.124Z,23.50
2019-04-29T19:52:31.992Z,23.50
2019-04-29T19:55:03.362Z,23.50
2019-04-29T19:57:37.903Z,23.50
2019-04-29T20:00:07.990Z,23.50
2019-04-29T20:02:45.426Z,23.40
2019-04-29T20:05:18.039Z,23.40
2019-04-29T20:07:50.558Z,23.50
2019-04-29T20:10:22.732Z,23.50
2019-04-29T20:12:55.537Z,23.50
2019-04-29T20:15:32.602Z,23.40
2019-04-29T20:18:23.787Z,23.50
2019-04-29T20:21:08.677Z,23.40
2019-04-29T20:23:36.190Z,23.40
2019-04-29T20:26:13.736Z,23.40
2019-04-29T20:28:37.666Z,23.40
2019-04-29T20:31:19.239Z,23.40
2019-04-29T20:33:42.143Z,23.40
2019-04-29T20:36:16.116Z,23.50
2019-04-29T20:38:46.997Z,23.50
2019-04-29T20:41:36.892Z,23.50
2019-04-29T20:43:51.007Z,23.60
2019-04-29T20:46:22.241Z,23.60
2019-04-29T20:48:55.804Z,23.60
2019-04-29T20:51:28.551Z,23.60
2019-04-29T20:54:08.914Z,23.60
2019-04-29T20:56:37.625Z,23.60
2019-04-29T20:59:12.801Z,23.60
2019-04-29T21:01:48.172Z,23.50
2019-04-29T21:04:31.203Z,23.50
2019-04-29T21:07:00.491Z,23.50
2019-04-29T21:09:27.513Z,23.50
2019-04-29T21:12:08.479Z,23.50
2019-04-29T21:14:52.194Z,23.60
2019-04-29T21:17:31.145Z,23.60
2019-04-29T21:19:56.399Z,23.70
2019-04-29T21:22:27.471Z,23.70
2019-04-29T21:24:58.731Z,23.70
2019-04-29T21:27:29.843Z,23.70
2019-04-29T21:30:02.044Z,23.70
2019-04-29T21:32:38.915Z,23.60
2019-04-29T21:35:18.564Z,23.60
2019-04-29T21:38:09.736Z,23.60
2019-04-29T21:40:53.029Z,23.50
2019-04-29T21:43:27.835Z,23.50
2019-04-29T21:45:59.520Z,23.50
2019-04-29T21:48:33.761Z,23.50
2019-04-29T21:51:06.882Z,23.50
2019-04-29T21:53:40.248Z,23.50
2019-04-29T21:56:10.918Z,23.50
2019-04-29T21:58:42.717Z,23.50
2019-04-29T22:01:15.259Z,23.50
2019-04-29T22:03:47.175Z,23.50
2019-04-29T22:06:19.201Z,23.50
2019-04-29T22:08:54.241Z,23.50
2019-04-29T22:11:25.863Z,23.50
2019-04-29T22:13:56.857Z,23.50
2019-04-29T22:16:29.400Z,23.40
2019-04-29T22:19:01.948Z,23.50
2019-04-29T22:21:33.503Z,23.40
2019-04-29T22:24:06.307Z,23.40
2019-04-29T22:26:38.854Z,23.40
2019-04-29T22:29:10.543Z,23.40
2019-04-29T22:31:41.922Z,23.40
2019-04-29T22:34:19.102Z,23.40
2019-04-29T22:36:48.176Z,23.40
2019-04-29T22:39:21.700Z,23.30
2019-04-29T22:42:10.487Z,23.40
2019-04-29T22:44:42.575Z,23.40
2019-04-29T22:47:19.004Z,23.40
2019-04-29T22:49:47.363Z,23.50
2019-04-29T22:52:18.271Z,23.40
2019-04-29T22:54:52.771Z,23.40
2019-04-29T22:57:23.041Z,23.40
2019-04-29T22:59:57.238Z,23.40
2019-04-29T23:02:28.549Z,23.40
2019-04-29T23:04:59.685Z,23.40
2019-04-29T23:07:30.685Z,23.40
2019-04-29T23:10:02.092Z,23.40
2019-04-29T23:12:32.913Z,23.40
2019-04-29T23:15:05.737Z,23.40
2019-04-29T23:17:36.668Z,23.40
2019-04-29T23:20:20.731Z,23.40
2019-04-29T23:22:58.336Z,23.40
2019-04-29T23:25:35.525Z,23.40
2019-04-29T23:28:06.258Z,23.40
2019-04-29T23:30:37.167Z,23.40
2019-04-29T23:33:08.366Z,23.40
2019-04-29T23:35:40.008Z,23.40
2019-04-29T23:38:12.142Z,23.40
2019-04-29T23:40:42.958Z,23.40
2019-04-29T23:43:15.700Z,23.40
2019-04-29T23:45:47.208Z,23.40
2019-04-29T23:48:20.040Z,23.40
2019-04-29T23:50:54.713Z,23.40
2019-04-29T23:53:25.117Z,23.40
2019-04-29T23:56:00.112Z,23.40
2019-04-29T23:58:52.812Z,23.40
